createdAt,value
2023-01-27T00:00:14.371Z,31.38
2023-01-27T00:02:42.398Z,30.63
2023-01-27T00:05:11.843Z,32.97
2023-01-27T00:07:39.067Z,39.03
2023-01-27T00:10:06.200Z,36.30
2023-01-27T00:12:51.176Z,34.53
2023-01-27T00:15:17.807Z,30.73
2023-01-27T00:17:44.306Z,35.55
2023-01-27T00:20:11.637Z,32.22
2023-01-27T00:22:57.233Z,32.45
2023-01-27T00:25:23.761Z,33.15
2023-01-27T00:27:50.284Z,39.40
2023-01-27T00:30:18.083Z,41.10
2023-01-27T00:33:03.688Z,34.88
2023-01-27T00:35:30.220Z,41.15
2023-01-27T00:37:56.789Z,40.47
2023-01-27T00:40:23.374Z,37.05
2023-01-27T00:42:49.923Z,35.10
2023-01-27T00:45:35.085Z,39.45
2023-01-27T00:48:01.703Z,42.08
2023-01-27T00:50:28.256Z,40.60
2023-01-27T00:52:54.828Z,41.95
2023-01-27T00:55:21.346Z,39.88
2023-01-27T00:57:47.925Z,33.58
2023-01-27T01:00:15.868Z,34.25
2023-01-27T01:02:42.605Z,40.05
2023-01-27T01:05:09.948Z,42.85
2023-01-27T01:07:36.493Z,39.95
2023-01-27T01:10:03.299Z,38.65
2023-01-27T01:12:29.851Z,49.47
2023-01-27T01:14:56.386Z,45.30
2023-01-27T01:17:22.937Z,44.17
2023-01-27T01:19:49.456Z,52.03
2023-01-27T01:22:15.982Z,47.00
2023-01-27T01:24:42.492Z,41.70
2023-01-27T01:27:09.048Z,40.67
2023-01-27T01:29:36.176Z,38.83
2023-01-27T01:32:02.874Z,31.88
2023-01-27T01:34:31.396Z,38.13
2023-01-27T01:36:58.155Z,35.05
2023-01-27T01:39:24.675Z,39.55
2023-01-27T01:41:51.216Z,43.33
2023-01-27T01:44:25.337Z,34.75
2023-01-27T01:46:51.992Z,32.00
2023-01-27T01:49:22.920Z,39.05
2023-01-27T01:52:02.771Z,39.17
2023-01-27T01:54:42.560Z,35.38
2023-01-27T01:57:25.768Z,33.17
2023-01-27T01:59:58.684Z,34.47
2023-01-27T02:02:26.684Z,38.78
2023-01-27T02:04:59.171Z,37.13
2023-01-27T02:07:33.475Z,38.10
2023-01-27T02:10:00.680Z,43.05
2023-01-27T02:12:27.642Z,43.75
2023-01-27T02:14:54.705Z,47.22
2023-01-27T02:17:22.022Z,45.83
2023-01-27T02:20:06.404Z,44.00
2023-01-27T02:23:11.887Z,43.47
2023-01-27T02:26:26.662Z,46.28
2023-01-27T02:28:59.138Z,40.50
2023-01-27T02:31:26.624Z,45.38
2023-01-27T02:33:57.869Z,44.10
2023-01-27T02:36:27.535Z,45.75
2023-01-27T02:38:56.775Z,49.38
2023-01-27T02:41:30.425Z,48.00
2023-01-27T02:43:57.159Z,48.20
2023-01-27T02:46:23.831Z,43.50
2023-01-27T02:48:50.555Z,54.95
2023-01-27T02:51:17.327Z,47.88
2023-01-27T02:53:45.300Z,45.05
2023-01-27T02:56:12.016Z,54.25
2023-01-27T02:58:38.570Z,51.20
2023-01-27T03:01:12.424Z,53.60
2023-01-27T03:03:43.981Z,49.63
2023-01-27T03:06:11.303Z,54.78
2023-01-27T03:08:38.545Z,51.72
2023-01-27T03:11:05.795Z,44.97
2023-01-27T03:13:32.719Z,51.20
2023-01-27T03:16:18.439Z,45.92
2023-01-27T03:18:49.583Z,46.63
2023-01-27T03:21:18.652Z,46.30
2023-01-27T03:23:49.024Z,42.70
2023-01-27T03:26:20.136Z,39.78
2023-01-27T03:29:11.132Z,38.95
2023-01-27T03:31:40.919Z,40.25
2023-01-27T03:34:07.542Z,41.78
2023-01-27T03:36:59.745Z,38.83
2023-01-27T03:39:45.152Z,40.03
2023-01-27T03:42:30.594Z,37.65
2023-01-27T03:45:15.883Z,41.17
2023-01-27T03:47:42.533Z,38.58
2023-01-27T03:50:11.211Z,33.45
2023-01-27T03:52:38.310Z,35.22
2023-01-27T03:55:05.170Z,47.90
2023-01-27T03:57:31.697Z,39.97
2023-01-27T03:59:58.262Z,39.53
2023-01-27T04:02:43.321Z,36.25
2023-01-27T04:05:28.450Z,37.67
2023-01-27T04:07:55.108Z,34.80
2023-01-27T04:10:21.683Z,36.20
2023-01-27T04:12:48.666Z,35.60
2023-01-27T04:15:15.405Z,32.13
2023-01-27T04:17:45.380Z,43.75
2023-01-27T04:20:12.446Z,39.95
2023-01-27T04:22:39.822Z,42.65
2023-01-27T04:25:06.959Z,45.45
2023-01-27T04:27:33.663Z,44.67
2023-01-27T04:30:00.485Z,41.88
2023-01-27T04:32:27.743Z,44.97
2023-01-27T04:34:54.434Z,47.13
2023-01-27T04:37:20.978Z,46.35
2023-01-27T04:39:47.544Z,43.72
2023-01-27T04:42:14.218Z,51.92
2023-01-27T04:44:40.696Z,50.83
2023-01-27T04:47:07.303Z,44.25
2023-01-27T04:49:33.815Z,45.20
2023-01-27T04:52:09.144Z,45.00
2023-01-27T04:54:35.776Z,46.75
2023-01-27T04:57:05.621Z,49.88
2023-01-27T04:59:32.154Z,44.28
2023-01-27T05:01:59.496Z,43.25
2023-01-27T05:04:27.095Z,47.58
2023-01-27T05:06:54.123Z,45.30
2023-01-27T05:09:20.698Z,49.28
2023-01-27T05:11:47.182Z,44.92
2023-01-27T05:14:14.612Z,46.17
2023-01-27T05:16:41.217Z,43.88
2023-01-27T05:19:08.895Z,51.58
2023-01-27T05:21:35.438Z,42.45
2023-01-27T05:24:02.381Z,43.05
2023-01-27T05:26:29.065Z,50.90
2023-01-27T05:28:58.494Z,51.22
2023-01-27T05:31:28.114Z,53.95
2023-01-27T05:33:55.928Z,50.45
2023-01-27T05:36:24.592Z,56.60
2023-01-27T05:38:52.014Z,49.33
2023-01-27T05:41:19.764Z,44.70
2023-01-27T05:43:47.811Z,46.55
2023-01-27T05:46:19.796Z,49.08
2023-01-27T05:48:51.986Z,52.83
2023-01-27T05:51:20.875Z,54.88
2023-01-27T05:53:47.756Z,45.17
2023-01-27T05:56:17.100Z,42.45
2023-01-27T05:58:44.716Z,52.15
2023-01-27T06:01:17.456Z,51.13
2023-01-27T06:03:45.231Z,47.38
2023-01-27T06:06:13.227Z,43.22
2023-01-27T06:08:40.682Z,52.80
2023-01-27T06:11:07.875Z,48.28
2023-01-27T06:13:39.015Z,53.95
2023-01-27T06:16:08.968Z,52.35
2023-01-27T06:18:36.705Z,54.15
2023-01-27T06:21:07.628Z,51.58
2023-01-27T06:23:34.758Z,52.55
2023-01-27T06:26:03.475Z,50.15
2023-01-27T06:28:30.372Z,53.47
2023-01-27T06:31:04.947Z,50.30
2023-01-27T06:33:31.459Z,53.03
2023-01-27T06:36:06.214Z,51.00
2023-01-27T06:38:32.858Z,47.63
2023-01-27T06:41:00.374Z,47.85
2023-01-27T06:43:28.017Z,55.88
2023-01-27T06:45:54.700Z,56.78
2023-01-27T06:48:21.204Z,59.67
2023-01-27T06:50:47.749Z,51.17
2023-01-27T06:53:14.287Z,54.90
2023-01-27T06:55:44.843Z,50.50
2023-01-27T06:58:12.901Z,53.78
2023-01-27T07:00:40.787Z,52.55
2023-01-27T07:03:09.318Z,57.65
2023-01-27T07:05:35.960Z,51.13
2023-01-27T07:08:02.556Z,49.72
2023-01-27T07:10:29.276Z,55.92
2023-01-27T07:13:06.063Z,64.25
2023-01-27T07:15:33.131Z,55.00
2023-01-27T07:18:01.075Z,58.83
2023-01-27T07:20:30.721Z,52.10
2023-01-27T07:22:58.718Z,61.20
2023-01-27T07:25:26.057Z,55.65
2023-01-27T07:27:53.456Z,55.97
2023-01-27T07:30:20.181Z,57.58
2023-01-27T07:32:46.751Z,59.60
2023-01-27T07:35:13.280Z,62.63
2023-01-27T07:37:39.837Z,59.63
2023-01-27T07:40:07.197Z,65.78
2023-01-27T07:42:33.800Z,59.97
2023-01-27T07:45:00.357Z,59.38
2023-01-27T07:47:26.895Z,60.03
2023-01-27T07:49:53.652Z,62.15
2023-01-27T07:52:20.246Z,66.72
2023-01-27T07:54:46.745Z,63.20
2023-01-27T07:57:13.288Z,65.90
2023-01-27T07:59:39.881Z,76.55
2023-01-27T08:02:06.770Z,65.68
2023-01-27T08:04:40.221Z,68.15
2023-01-27T08:07:17.845Z,66.35
2023-01-27T08:09:44.408Z,71.63
2023-01-27T08:12:11.036Z,72.22
2023-01-27T08:14:37.541Z,74.07
2023-01-27T08:17:04.088Z,84.82
2023-01-27T08:19:30.642Z,71.50
2023-01-27T08:21:57.645Z,82.50
2023-01-27T08:24:24.195Z,74.18
2023-01-27T08:26:50.712Z,76.28
2023-01-27T08:29:17.633Z,69.15
2023-01-27T08:31:44.234Z,77.93
2023-01-27T08:34:11.937Z,85.13
2023-01-27T08:36:42.455Z,81.65
2023-01-27T08:39:10.062Z,78.38
2023-01-27T08:41:36.639Z,79.57
2023-01-27T08:44:03.373Z,86.35
2023-01-27T08:46:29.926Z,102.07
2023-01-27T08:48:56.435Z,104.63
2023-01-27T08:51:23.101Z,100.90
2023-01-27T08:53:49.681Z,127.18
2023-01-27T08:56:16.631Z,119.47
2023-01-27T08:58:43.288Z,110.80
2023-01-27T09:01:10.274Z,122.20
2023-01-27T09:03:37.239Z,119.65
2023-01-27T09:06:09.079Z,114.85
2023-01-27T09:08:35.744Z,108.53
2023-01-27T09:11:08.888Z,109.68
2023-01-27T09:13:35.420Z,104.13
2023-01-27T09:16:02.714Z,113.82
2023-01-27T09:18:29.316Z,109.95
2023-01-27T09:20:55.883Z,102.22
2023-01-27T09:23:22.535Z,101.72
2023-01-27T09:25:50.040Z,114.65
2023-01-27T09:28:19.488Z,97.25
2023-01-27T09:30:46.634Z,99.43
2023-01-27T09:33:17.448Z,98.90
2023-01-27T09:35:48.166Z,87.60
2023-01-27T09:38:18.755Z,93.50
2023-01-27T09:40:45.231Z,86.78
2023-01-27T09:43:41.832Z,88.03
2023-01-27T09:46:26.508Z,72.60
2023-01-27T09:49:04.936Z,78.63
2023-01-27T09:51:40.107Z,92.15
2023-01-27T09:54:28.387Z,73.32
2023-01-27T09:57:11.326Z,73.90
2023-01-27T09:59:56.653Z,81.35
2023-01-27T10:02:51.176Z,68.88
2023-01-27T10:05:55.245Z,65.80
2023-01-27T10:08:21.657Z,75.20
2023-01-27T10:13:40.231Z,69.10
2023-01-27T10:16:35.444Z,55.92
2023-01-27T10:19:11.924Z,57.88
2023-01-27T10:21:51.759Z,56.10
2023-01-27T10:24:33.398Z,60.25
2023-01-27T10:27:15.758Z,58.88
2023-01-27T10:29:51.349Z,56.05
2023-01-27T10:32:45.697Z,58.72
2023-01-27T10:35:21.631Z,50.97
2023-01-27T10:37:57.072Z,47.13
2023-01-27T10:40:36.081Z,51.10
2023-01-27T10:43:26.058Z,45.55
2023-01-27T10:46:09.307Z,42.38
2023-01-27T10:48:54.513Z,45.30
2023-01-27T10:51:45.768Z,55.83
2023-01-27T10:54:24.173Z,51.80
2023-01-27T10:56:56.571Z,46.30
2023-01-27T11:00:17.388Z,48.83
2023-01-27T11:02:45.832Z,48.42
2023-01-27T11:05:20.604Z,45.60
2023-01-27T11:07:52.494Z,51.63
2023-01-27T11:10:22.180Z,45.83
2023-01-27T11:12:54.562Z,44.10
2023-01-27T11:33:03.853Z,45.45
2023-01-27T11:35:30.477Z,44.25
2023-01-27T11:38:09.808Z,43.85
2023-01-27T11:40:41.653Z,48.80
2023-01-27T11:43:13.495Z,43.42
2023-01-27T11:45:40.101Z,50.80
2023-01-27T11:48:14.310Z,42.63
2023-01-27T11:50:42.227Z,47.75
2023-01-27T11:53:29.719Z,43.80
2023-01-27T11:56:02.186Z,50.20
2023-01-27T11:59:03.299Z,48.33
2023-01-27T12:01:44.789Z,43.30
2023-01-27T12:04:19.994Z,43.00
2023-01-27T12:06:55.711Z,46.58
2023-01-27T12:09:34.361Z,48.90
2023-01-27T12:12:20.908Z,41.33
2023-01-27T12:14:59.525Z,45.30
2023-01-27T12:17:45.548Z,42.67
2023-01-27T12:20:33.934Z,40.63
2023-01-27T12:23:05.171Z,46.08
2023-01-27T12:25:42.818Z,40.90
2023-01-27T12:28:22.019Z,39.22
2023-01-27T12:30:49.057Z,41.85
2023-01-27T12:33:23.984Z,44.17
2023-01-27T12:35:51.478Z,46.10
2023-01-27T12:38:20.388Z,46.83
2023-01-27T12:40:48.052Z,47.22
2023-01-27T12:43:19.995Z,42.50
2023-01-27T12:46:05.025Z,41.58
2023-01-27T12:48:34.094Z,48.35
2023-01-27T12:51:15.830Z,52.60
2023-01-27T12:53:44.310Z,47.38
2023-01-27T12:56:14.847Z,43.05
2023-01-27T12:58:54.210Z,46.25
2023-01-27T13:01:20.713Z,44.88
2023-01-27T13:04:00.328Z,44.13
2023-01-27T13:06:41.911Z,43.75
2023-01-27T13:09:38.153Z,48.75
2023-01-27T13:12:15.733Z,48.28
2023-01-27T13:14:43.389Z,42.25
2023-01-27T13:17:34.600Z,43.55
2023-01-27T13:20:25.163Z,41.33
2023-01-27T13:22:59.428Z,44.00
2023-01-27T13:25:40.561Z,50.33
2023-01-27T13:28:08.883Z,55.97
2023-01-27T13:30:40.429Z,48.42
2023-01-27T13:33:26.341Z,46.30
2023-01-27T13:36:08.273Z,48.28
2023-01-27T13:39:11.856Z,48.42
2023-01-27T13:41:49.941Z,47.08
2023-01-27T13:44:28.470Z,39.47
2023-01-27T13:47:01.844Z,52.80
2023-01-27T13:49:45.698Z,45.60
2023-01-27T13:52:12.968Z,45.25
2023-01-27T13:54:39.750Z,57.38
2023-01-27T13:57:06.189Z,51.63
2023-01-27T14:02:30.165Z,53.22
2023-01-27T14:05:20.463Z,48.97
2023-01-27T14:08:24.143Z,50.15
2023-01-27T14:11:09.266Z,52.03
2023-01-27T14:14:03.334Z,56.65
2023-01-27T14:16:40.510Z,55.45
2023-01-27T14:19:22.032Z,51.63
2023-01-27T14:22:14.737Z,58.03
2023-01-27T14:24:50.081Z,52.38
2023-01-27T14:27:28.886Z,61.53
2023-01-27T14:30:07.713Z,56.70
2023-01-27T14:33:02.302Z,54.10
2023-01-27T14:35:35.995Z,54.37
2023-01-27T14:38:50.728Z,52.83
2023-01-27T14:41:27.452Z,56.95
2023-01-27T14:44:21.983Z,53.70
2023-01-27T14:46:56.433Z,47.42
2023-01-27T14:49:41.110Z,49.50
2023-01-27T14:52:49.689Z,52.35
2023-01-27T14:55:28.371Z,46.10
2023-01-27T14:58:05.763Z,53.00
2023-01-27T15:00:59.592Z,49.88
2023-01-27T15:04:02.047Z,45.03
2023-01-27T15:06:47.766Z,43.55
2023-01-27T15:09:17.033Z,49.00
2023-01-27T15:11:44.028Z,40.50
2023-01-27T15:14:29.482Z,51.42
2023-01-27T15:17:20.675Z,42.55
2023-01-27T15:20:22.586Z,45.38
2023-01-27T15:23:20.548Z,48.55
2023-01-27T15:28:21.562Z,37.67
2023-01-27T15:31:14.917Z,46.75
2023-01-27T15:33:56.912Z,48.47
2023-01-27T15:36:30.583Z,48.33
2023-01-27T15:39:20.228Z,44.15
2023-01-27T15:42:01.515Z,44.85
2023-01-27T15:44:30.443Z,46.58
2023-01-27T15:47:09.444Z,44.10
2023-01-27T15:49:47.277Z,47.13
2023-01-27T15:52:31.711Z,38.95
2023-01-27T15:55:01.420Z,42.92
2023-01-27T15:57:37.176Z,33.33
2023-01-27T16:00:15.571Z,44.95
2023-01-27T16:02:47.098Z,38.33
2023-01-27T16:05:17.879Z,35.35
2023-01-27T16:07:50.552Z,37.15
2023-01-27T16:10:21.906Z,40.10
2023-01-27T16:12:49.305Z,38.08
2023-01-27T16:15:16.140Z,45.30
2023-01-27T16:18:07.159Z,44.15
2023-01-27T16:20:39.469Z,42.95
2023-01-27T16:23:13.485Z,41.10
2023-01-27T16:25:46.598Z,43.58
2023-01-27T16:28:18.491Z,38.50
2023-01-27T16:30:56.677Z,45.22
2023-01-27T16:33:31.156Z,33.88
2023-01-27T16:36:28.396Z,33.05
2023-01-27T16:38:59.310Z,39.72
2023-01-27T16:41:28.644Z,43.88
2023-01-27T16:44:03.149Z,72.13
2023-01-27T16:46:36.552Z,43.10
2023-01-27T16:49:11.798Z,40.28
2023-01-27T16:51:38.988Z,38.75
2023-01-27T16:54:22.562Z,46.72
2023-01-27T16:56:51.879Z,49.40
2023-01-27T16:59:23.957Z,37.83
2023-01-27T17:01:53.999Z,108.15
2023-01-27T17:04:24.988Z,43.08
2023-01-27T17:06:56.091Z,83.10
2023-01-27T17:09:30.007Z,97.72
2023-01-27T17:11:56.598Z,99.95
2023-01-27T17:14:42.689Z,54.17
2023-01-27T17:17:19.317Z,55.80
2023-01-27T17:19:50.956Z,51.38
2023-01-27T17:22:27.128Z,37.33
2023-01-27T17:25:00.725Z,34.83
2023-01-27T17:27:34.630Z,39.20
2023-01-27T17:30:09.914Z,36.85
2023-01-27T17:32:39.644Z,42.67
2023-01-27T17:35:19.354Z,58.00
2023-01-27T17:37:45.907Z,53.33
2023-01-27T17:40:19.052Z,38.03
2023-01-27T17:42:45.648Z,41.40
2023-01-27T17:45:29.971Z,40.03
2023-01-27T17:48:00.998Z,44.05
2023-01-27T17:50:34.357Z,48.50
2023-01-27T17:53:00.954Z,48.20
2023-01-27T17:55:30.911Z,40.95
2023-01-27T17:58:05.142Z,36.72
2023-01-27T18:00:38.794Z,110.85
2023-01-27T18:03:17.158Z,67.53
2023-01-27T18:05:46.072Z,57.25
2023-01-27T18:08:12.696Z,32.20
2023-01-27T18:10:45.837Z,40.40
2023-01-27T18:13:18.183Z,42.55
2023-01-27T18:15:49.796Z,36.88
2023-01-27T18:18:19.073Z,46.85
2023-01-27T18:20:49.293Z,42.45
2023-01-27T18:23:21.332Z,41.45
2023-01-27T18:25:53.262Z,66.80
2023-01-27T18:28:19.987Z,51.80
2023-01-27T18:30:51.080Z,45.92
2023-01-27T18:33:18.360Z,104.70
2023-01-27T18:35:55.555Z,39.38
2023-01-27T18:38:24.736Z,38.75
2023-01-27T18:40:51.351Z,39.38
2023-01-27T18:43:17.940Z,52.70
2023-01-27T18:45:45.210Z,39.88
2023-01-27T18:48:17.380Z,42.58
2023-01-27T18:50:46.588Z,34.13
2023-01-27T18:53:15.715Z,35.20
2023-01-27T18:55:42.681Z,37.55
2023-01-27T18:58:12.897Z,50.60
2023-01-27T19:00:50.550Z,39.35
2023-01-27T19:03:21.613Z,36.13
2023-01-27T19:05:48.994Z,45.97
2023-01-27T19:08:20.614Z,32.90
2023-01-27T19:10:48.470Z,35.65
2023-01-27T19:13:16.333Z,41.47
2023-01-27T19:15:54.825Z,35.00
2023-01-27T19:18:36.719Z,35.33
2023-01-27T19:21:03.397Z,34.95
2023-01-27T19:23:32.443Z,36.85
2023-01-27T19:26:03.152Z,37.78
2023-01-27T19:28:37.432Z,42.20
2023-01-27T19:31:06.647Z,34.63
2023-01-27T19:33:34.708Z,37.88
2023-01-27T19:36:31.295Z,35.17
2023-01-27T19:39:09.226Z,36.55
2023-01-27T19:41:35.807Z,40.45
2023-01-27T19:44:03.374Z,38.83
2023-01-27T19:46:30.597Z,34.95
2023-01-27T19:48:57.902Z,36.55
2023-01-27T19:51:24.632Z,34.80
2023-01-27T19:53:51.243Z,38.45
2023-01-27T19:56:20.838Z,35.08
2023-01-27T19:58:52.616Z,38.20
2023-01-27T20:01:20.807Z,39.90
2023-01-27T20:03:47.476Z,37.13
2023-01-27T20:06:15.952Z,41.75
2023-01-27T20:08:42.590Z,42.25
2023-01-27T20:11:39.619Z,40.45
2023-01-27T20:14:12.801Z,43.47
2023-01-27T20:16:39.555Z,47.35
2023-01-27T20:19:06.140Z,41.28
2023-01-27T20:21:33.904Z,40.42
2023-01-27T20:24:02.267Z,45.95
2023-01-27T20:26:32.475Z,39.70
2023-01-27T20:28:59.145Z,42.13
2023-01-27T20:31:26.132Z,46.55
2023-01-27T20:33:52.904Z,45.97
2023-01-27T20:36:22.218Z,45.75
2023-01-27T20:38:49.161Z,52.03
2023-01-27T20:41:19.260Z,52.80
2023-01-27T20:43:46.108Z,51.50
2023-01-27T20:46:15.624Z,52.67
2023-01-27T20:48:42.392Z,55.25
2023-01-27T20:51:12.375Z,50.60
2023-01-27T20:53:45.447Z,58.42
2023-01-27T20:56:17.922Z,47.90
2023-01-27T20:58:45.106Z,52.08
2023-01-27T21:01:14.227Z,58.65
2023-01-27T21:03:41.660Z,50.15
2023-01-27T21:06:09.795Z,53.03
2023-01-27T21:08:39.262Z,58.22
2023-01-27T21:11:10.713Z,48.70
2023-01-27T21:13:37.465Z,52.55
2023-01-27T21:16:04.107Z,53.58
2023-01-27T21:18:31.556Z,58.25
2023-01-27T21:21:02.661Z,46.95
2023-01-27T21:23:29.952Z,52.72
2023-01-27T21:25:56.612Z,48.58
2023-01-27T21:28:23.249Z,53.53
2023-01-27T21:30:49.839Z,52.35
2023-01-27T21:33:17.079Z,46.10
2023-01-27T21:35:43.594Z,52.63
2023-01-27T21:38:10.167Z,55.78
2023-01-27T21:40:36.912Z,53.78
2023-01-27T21:43:21.941Z,48.58
2023-01-27T21:45:58.242Z,46.90
2023-01-27T21:48:24.838Z,53.47
2023-01-27T21:50:52.025Z,51.33
2023-01-27T21:53:18.595Z,52.17
2023-01-27T21:55:45.163Z,56.53
2023-01-27T21:58:11.703Z,53.22
2023-01-27T22:00:38.382Z,50.42
2023-01-27T22:03:05.871Z,57.17
2023-01-27T22:05:33.886Z,55.17
2023-01-27T22:08:03.057Z,52.83
2023-01-27T22:10:30.299Z,57.08
2023-01-27T22:13:03.892Z,53.95
2023-01-27T22:15:31.222Z,51.15
2023-01-27T22:17:58.417Z,51.70
2023-01-27T22:20:26.071Z,51.90
2023-01-27T22:22:52.759Z,52.60
2023-01-27T22:25:19.834Z,49.97
2023-01-27T22:27:46.835Z,52.70
2023-01-27T22:30:18.289Z,55.83
2023-01-27T22:32:46.083Z,48.33
2023-01-27T22:35:18.144Z,52.95
2023-01-27T22:37:45.382Z,46.10
2023-01-27T22:40:13.337Z,46.35
2023-01-27T22:42:40.211Z,51.33
2023-01-27T22:45:08.739Z,52.25
2023-01-27T22:47:35.959Z,49.80
2023-01-27T22:50:02.668Z,51.97
2023-01-27T22:52:29.222Z,53.95
2023-01-27T22:54:55.759Z,47.78
2023-01-27T22:57:22.346Z,50.97
2023-01-27T22:59:48.853Z,48.90
2023-01-27T23:17:48.715Z,52.53
2023-01-27T23:20:15.418Z,56.10
2023-01-27T23:22:42.019Z,53.65
2023-01-27T23:25:09.341Z,58.15
2023-01-27T23:27:35.941Z,58.58
2023-01-27T23:30:02.568Z,49.70
2023-01-27T23:32:29.134Z,53.45
2023-01-27T23:34:55.747Z,49.53
2023-01-27T23:37:22.322Z,56.05
2023-01-27T23:39:49.831Z,44.15
2023-01-27T23:42:17.671Z,45.70
2023-01-27T23:44:44.462Z,43.40
2023-01-27T23:47:11.818Z,46.85
2023-01-27T23:49:38.311Z,50.20
2023-01-27T23:52:05.145Z,49.13
2023-01-27T23:54:32.383Z,50.92
2023-01-27T23:56:59.639Z,50.28
2023-01-27T23:59:26.213Z,45.42
